createdAt,value
2022-12-29T00:00:09.572Z,10.04
2022-12-29T00:02:44.553Z,10.03
2022-12-29T00:05:14.020Z,10.56
2022-12-29T00:07:43.508Z,10.56
2022-12-29T00:10:11.608Z,11.43
2022-12-29T00:12:57.001Z,11.89
2022-12-29T00:15:39.027Z,11.74
2022-12-29T00:18:06.368Z,11.84
2022-12-29T00:20:57.512Z,11.86
2022-12-29T00:23:43.657Z,11.19
2022-12-29T00:26:39.189Z,11.28
2022-12-29T00:29:28.135Z,11.85
2022-12-29T00:32:17.365Z,11.77
2022-12-29T00:35:03.301Z,12.10
2022-12-29T00:37:49.047Z,11.57
2022-12-29T00:40:37.098Z,11.84
2022-12-29T00:43:28.604Z,11.67
2022-12-29T00:45:56.055Z,11.37
2022-12-29T00:48:44.036Z,11.26
2022-12-29T00:51:20.774Z,10.98
2022-12-29T00:53:47.469Z,10.66
2022-12-29T00:56:14.306Z,10.50
2022-12-29T00:58:40.979Z,10.62
2022-12-29T01:01:10.089Z,9.96
2022-12-29T01:03:38.450Z,11.28
2022-12-29T01:06:10.001Z,11.40
2022-12-29T01:08:40.750Z,11.53
2022-12-29T01:11:10.365Z,11.68
2022-12-29T01:13:39.248Z,11.72
2022-12-29T01:16:09.173Z,11.08
2022-12-29T01:18:36.098Z,11.35
2022-12-29T01:21:05.257Z,11.11
2022-12-29T01:23:34.363Z,11.18
2022-12-29T01:26:12.426Z,10.93
2022-12-29T01:28:42.631Z,10.91
2022-12-29T01:31:11.048Z,10.77
2022-12-29T01:33:37.921Z,10.45
2022-12-29T01:36:06.657Z,9.79
2022-12-29T01:38:35.837Z,10.62
2022-12-29T01:41:06.221Z,10.04
2022-12-29T01:43:44.552Z,10.40
2022-12-29T01:46:21.708Z,10.37
2022-12-29T01:48:50.525Z,10.40
2022-12-29T01:51:17.899Z,10.73
2022-12-29T01:53:46.045Z,10.36
2022-12-29T01:56:24.989Z,10.79
2022-12-29T01:59:00.128Z,10.81
2022-12-29T02:01:28.269Z,10.59
2022-12-29T02:03:58.134Z,10.58
2022-12-29T02:06:36.617Z,10.24
2022-12-29T02:09:09.588Z,10.37
2022-12-29T02:11:37.464Z,10.53
2022-12-29T02:14:10.334Z,10.52
2022-12-29T02:20:04.785Z,10.52
2022-12-29T02:23:13.001Z,10.62
2022-12-29T02:26:09.175Z,10.64
2022-12-29T02:28:57.809Z,10.60
2022-12-29T02:31:30.577Z,10.56
2022-12-29T02:34:34.611Z,10.49
2022-12-29T02:37:12.769Z,10.11
2022-12-29T02:40:00.005Z,10.45
2022-12-29T02:42:40.972Z,10.40
2022-12-29T02:45:27.650Z,10.31
2022-12-29T02:48:15.572Z,10.37
2022-12-29T02:50:51.987Z,10.57
2022-12-29T02:53:42.597Z,11.37
2022-12-29T02:56:10.227Z,12.07
2022-12-29T02:58:36.980Z,12.40
2022-12-29T03:02:10.973Z,12.78
2022-12-29T03:05:15.819Z,12.45
2022-12-29T03:07:48.396Z,12.05
2022-12-29T03:10:42.003Z,11.74
2022-12-29T03:14:09.335Z,11.23
2022-12-29T03:16:50.654Z,11.00
2022-12-29T03:19:47.556Z,10.75
2022-12-29T03:22:37.050Z,10.54
2022-12-29T03:25:17.355Z,10.51
2022-12-29T03:27:54.502Z,10.42
2022-12-29T03:30:21.505Z,10.36
2022-12-29T03:32:59.046Z,10.40
2022-12-29T03:35:29.097Z,11.80
2022-12-29T03:38:18.518Z,11.14
2022-12-29T03:40:50.779Z,11.50
2022-12-29T03:43:19.074Z,11.25
2022-12-29T03:45:46.049Z,10.97
2022-12-29T03:48:13.020Z,10.72
2022-12-29T03:50:39.716Z,11.14
2022-12-29T03:53:06.470Z,11.48
2022-12-29T03:55:33.183Z,11.21
2022-12-29T03:58:00.557Z,10.66
2022-12-29T04:00:27.256Z,10.84
2022-12-29T04:02:54.038Z,10.81
2022-12-29T04:05:26.089Z,11.01
2022-12-29T04:07:52.832Z,11.34
2022-12-29T04:10:19.726Z,11.29
2022-12-29T04:12:47.686Z,10.90
2022-12-29T04:15:14.560Z,11.01
2022-12-29T04:17:49.950Z,10.87
2022-12-29T04:20:36.506Z,10.87
2022-12-29T04:23:19.850Z,10.69
2022-12-29T04:25:48.504Z,10.62
2022-12-29T04:28:18.809Z,10.57
2022-12-29T04:30:46.943Z,10.43
2022-12-29T04:33:17.180Z,10.15
2022-12-29T04:35:46.219Z,10.03
2022-12-29T04:38:13.102Z,10.00
2022-12-29T04:40:41.488Z,9.79
2022-12-29T04:43:09.241Z,10.14
2022-12-29T04:45:40.421Z,10.05
2022-12-29T04:48:07.572Z,10.03
2022-12-29T04:50:34.299Z,10.18
2022-12-29T04:53:01.708Z,9.85
2022-12-29T04:55:31.433Z,10.16
2022-12-29T04:58:01.320Z,10.13
2022-12-29T05:00:28.162Z,10.06
2022-12-29T05:03:01.602Z,9.65
2022-12-29T05:05:28.403Z,10.17
2022-12-29T05:07:55.149Z,9.78
2022-12-29T05:10:30.470Z,10.19
2022-12-29T05:12:57.056Z,10.11
2022-12-29T05:15:32.864Z,10.79
2022-12-29T05:18:00.002Z,10.95
2022-12-29T05:20:26.665Z,11.40
2022-12-29T05:22:53.321Z,12.15
2022-12-29T05:25:20.005Z,11.83
2022-12-29T05:27:46.788Z,11.70
2022-12-29T05:30:13.777Z,11.76
2022-12-29T05:32:41.001Z,11.63
2022-12-29T05:35:08.200Z,11.46
2022-12-29T05:37:38.050Z,11.07
2022-12-29T05:40:05.363Z,11.16
2022-12-29T05:42:31.996Z,11.04
2022-12-29T05:44:59.429Z,10.76
2022-12-29T05:47:27.344Z,10.85
2022-12-29T05:49:54.032Z,10.77
2022-12-29T05:52:20.783Z,10.69
2022-12-29T05:54:47.524Z,10.66
2022-12-29T05:57:20.313Z,10.52
2022-12-29T05:59:47.054Z,10.45
2022-12-29T06:02:20.793Z,10.39
2022-12-29T06:04:47.507Z,10.00
2022-12-29T06:07:14.245Z,9.89
2022-12-29T06:09:40.921Z,10.46
2022-12-29T06:12:07.888Z,10.09
2022-12-29T06:14:34.617Z,10.20
2022-12-29T06:17:03.901Z,10.54
2022-12-29T06:19:36.844Z,10.41
2022-12-29T06:22:03.981Z,10.58
2022-12-29T06:24:37.931Z,10.74
2022-12-29T06:27:11.706Z,10.71
2022-12-29T06:29:43.128Z,10.67
2022-12-29T06:32:10.187Z,10.74
2022-12-29T06:34:38.975Z,10.53
2022-12-29T06:37:05.964Z,10.75
2022-12-29T06:39:32.744Z,10.81
2022-12-29T06:41:59.486Z,10.47
2022-12-29T06:44:28.697Z,10.66
2022-12-29T06:46:55.736Z,10.57
2022-12-29T06:49:25.413Z,10.53
2022-12-29T06:51:52.091Z,10.56
2022-12-29T06:54:18.716Z,10.56
2022-12-29T06:56:48.474Z,10.51
2022-12-29T06:59:15.189Z,10.41
2022-12-29T07:01:41.963Z,10.20
2022-12-29T07:04:08.747Z,10.41
2022-12-29T07:06:35.564Z,10.21
2022-12-29T07:09:02.233Z,10.25
2022-12-29T07:11:28.980Z,10.09
2022-12-29T07:14:02.039Z,10.06
2022-12-29T07:16:30.440Z,9.97
2022-12-29T07:18:58.093Z,10.15
2022-12-29T07:21:24.847Z,10.20
2022-12-29T07:23:53.562Z,10.09
2022-12-29T07:26:22.025Z,10.16
2022-12-29T07:28:52.126Z,9.98
2022-12-29T07:31:21.647Z,10.02
2022-12-29T07:33:57.450Z,9.54
2022-12-29T07:36:26.067Z,10.01
2022-12-29T07:38:56.261Z,9.95
2022-12-29T07:41:23.205Z,9.87
2022-12-29T07:43:49.984Z,9.99
2022-12-29T07:46:54.219Z,9.61
2022-12-29T07:49:03.429Z,9.91
2022-12-29T07:51:30.137Z,9.98
2022-12-29T07:53:56.791Z,10.03
2022-12-29T07:56:23.487Z,9.59
2022-12-29T07:58:50.362Z,9.67
2022-12-29T08:01:17.315Z,9.87
2022-12-29T08:03:44.118Z,9.89
2022-12-29T08:06:13.959Z,9.81
2022-12-29T08:08:44.055Z,9.70
2022-12-29T08:11:10.815Z,9.62
2022-12-29T08:13:37.616Z,9.46
2022-12-29T08:16:04.634Z,9.86
2022-12-29T08:18:35.597Z,9.80
2022-12-29T08:21:05.764Z,9.71
2022-12-29T08:23:35.654Z,9.89
2022-12-29T08:26:09.291Z,9.91
2022-12-29T08:28:35.979Z,9.86
2022-12-29T08:31:04.147Z,9.75
2022-12-29T08:33:31.399Z,9.77
2022-12-29T08:36:06.009Z,9.86
2022-12-29T08:38:33.718Z,9.71
2022-12-29T08:41:10.465Z,9.94
2022-12-29T08:43:39.058Z,10.05
2022-12-29T08:46:05.833Z,9.68
2022-12-29T08:48:32.584Z,10.30
2022-12-29T08:50:59.283Z,10.31
2022-12-29T08:53:26.497Z,10.27
2022-12-29T08:56:04.037Z,9.31
2022-12-29T08:58:32.046Z,10.14
2022-12-29T09:00:59.776Z,10.14
2022-12-29T09:03:54.925Z,10.21
2022-12-29T09:06:15.140Z,10.21
2022-12-29T09:08:45.569Z,10.26
2022-12-29T09:11:19.033Z,10.26
2022-12-29T09:13:46.344Z,10.03
2022-12-29T09:16:15.769Z,10.01
2022-12-29T09:18:43.304Z,10.09
2022-12-29T09:21:12.041Z,10.14
2022-12-29T09:23:39.502Z,10.32
2022-12-29T09:26:06.756Z,10.32
2022-12-29T09:28:39.715Z,10.33
2022-12-29T09:31:06.708Z,10.24
2022-12-29T09:33:39.352Z,10.01
2022-12-29T09:36:06.382Z,10.26
2022-12-29T09:38:33.333Z,10.39
2022-12-29T09:41:23.089Z,10.41
2022-12-29T09:44:01.920Z,10.48
2022-12-29T09:46:50.978Z,11.42
2022-12-29T09:49:27.410Z,11.84
2022-12-29T09:51:59.266Z,10.64
2022-12-29T09:54:39.508Z,10.87
2022-12-29T09:57:18.865Z,10.89
2022-12-29T09:59:47.515Z,11.00
2022-12-29T10:02:41.402Z,10.85
2022-12-29T10:05:28.096Z,10.69
2022-12-29T10:08:22.580Z,10.50
2022-12-29T10:11:16.518Z,10.53
2022-12-29T10:14:16.293Z,10.57
2022-12-29T10:16:46.173Z,10.56
2022-12-29T10:19:35.305Z,10.66
2022-12-29T10:22:30.388Z,10.67
2022-12-29T10:25:03.878Z,11.00
2022-12-29T10:27:35.694Z,11.44
2022-12-29T10:30:03.778Z,11.26
2022-12-29T10:32:48.099Z,11.01
2022-12-29T10:35:17.504Z,10.83
2022-12-29T10:38:08.905Z,10.80
2022-12-29T10:40:46.469Z,10.64
2022-12-29T10:43:36.471Z,10.70
2022-12-29T10:46:10.792Z,10.58
2022-12-29T10:48:37.742Z,10.54
2022-12-29T10:51:07.419Z,10.36
2022-12-29T10:53:51.525Z,10.23
2022-12-29T10:56:30.736Z,10.24
2022-12-29T10:59:04.407Z,10.36
2022-12-29T11:01:52.345Z,10.36
2022-12-29T11:04:29.602Z,9.70
2022-12-29T11:06:58.635Z,10.53
2022-12-29T11:09:42.181Z,10.56
2022-12-29T11:12:30.204Z,10.69
2022-12-29T11:15:09.071Z,10.88
2022-12-29T11:18:00.681Z,10.88
2022-12-29T11:20:40.625Z,11.45
2022-12-29T11:23:26.200Z,11.36
2022-12-29T11:26:16.612Z,11.30
2022-12-29T11:28:49.513Z,10.96
2022-12-29T11:31:23.021Z,11.00
2022-12-29T11:33:52.970Z,10.64
2022-12-29T11:36:27.828Z,10.56
2022-12-29T11:38:56.673Z,11.09
2022-12-29T11:41:30.804Z,11.01
2022-12-29T11:44:02.584Z,10.68
2022-12-29T11:46:39.336Z,11.32
2022-12-29T11:49:07.131Z,11.47
2022-12-29T11:51:47.832Z,11.23
2022-12-29T11:54:47.495Z,11.31
2022-12-29T11:57:18.424Z,12.24
2022-12-29T11:59:53.325Z,12.42
2022-12-29T12:02:42.956Z,11.79
2022-12-29T12:05:16.964Z,12.26
2022-12-29T12:07:48.093Z,12.11
2022-12-29T12:10:23.756Z,12.14
2022-12-29T12:13:17.470Z,11.99
2022-12-29T12:15:56.122Z,11.60
2022-12-29T12:19:11.149Z,11.57
2022-12-29T12:21:47.687Z,11.40
2022-12-29T12:24:52.295Z,11.37
2022-12-29T12:27:27.476Z,11.43
2022-12-29T12:30:04.518Z,11.43
2022-12-29T12:32:46.752Z,11.40
2022-12-29T12:35:29.715Z,11.17
2022-12-29T12:38:02.509Z,11.36
2022-12-29T12:40:53.889Z,12.17
2022-12-29T12:43:29.776Z,12.01
2022-12-29T12:46:29.057Z,11.87
2022-12-29T12:49:22.377Z,11.23
2022-12-29T12:52:32.636Z,11.67
2022-12-29T12:55:11.675Z,11.68
2022-12-29T12:57:46.647Z,11.75
2022-12-29T13:00:21.411Z,11.13
2022-12-29T13:03:03.410Z,11.87
2022-12-29T13:05:49.075Z,11.92
2022-12-29T13:08:37.006Z,12.07
2022-12-29T13:11:15.893Z,12.27
2022-12-29T13:13:57.855Z,11.77
2022-12-29T13:16:42.640Z,12.55
2022-12-29T13:19:22.177Z,12.88
2022-12-29T13:22:26.219Z,12.35
2022-12-29T13:24:52.930Z,11.75
2022-12-29T13:27:39.636Z,11.87
2022-12-29T13:30:15.427Z,11.77
2022-12-29T13:32:51.212Z,11.68
2022-12-29T13:36:02.468Z,11.50
2022-12-29T13:38:49.758Z,11.26
2022-12-29T13:41:35.291Z,11.51
2022-12-29T13:44:04.469Z,11.21
2022-12-29T13:46:40.805Z,11.27
2022-12-29T13:49:21.138Z,11.19
2022-12-29T13:51:54.122Z,11.06
2022-12-29T13:54:28.601Z,11.09
2022-12-29T13:57:16.395Z,11.06
2022-12-29T14:00:00.635Z,11.10
2022-12-29T14:03:04.256Z,11.14
2022-12-29T14:05:34.886Z,10.91
2022-12-29T14:08:08.252Z,11.24
2022-12-29T14:10:53.429Z,11.23
2022-12-29T14:13:24.721Z,11.75
2022-12-29T14:15:59.053Z,11.44
2022-12-29T14:18:32.741Z,11.94
2022-12-29T14:21:11.579Z,12.37
2022-12-29T14:23:49.687Z,12.50
2022-12-29T14:26:36.601Z,12.83
2022-12-29T14:29:25.499Z,13.02
2022-12-29T14:31:53.789Z,12.70
2022-12-29T14:34:35.001Z,12.47
2022-12-29T14:37:06.144Z,12.43
2022-12-29T14:39:47.356Z,12.06
2022-12-29T14:42:18.570Z,12.07
2022-12-29T14:44:48.565Z,12.21
2022-12-29T14:47:38.031Z,12.21
2022-12-29T14:50:26.522Z,12.61
2022-12-29T14:53:04.701Z,12.96
2022-12-29T14:55:53.228Z,11.88
2022-12-29T14:58:29.091Z,12.25
2022-12-29T15:00:59.578Z,12.02
2022-12-29T15:03:33.132Z,12.15
2022-12-29T15:06:09.392Z,12.01
2022-12-29T15:08:50.247Z,12.18
2022-12-29T15:11:31.661Z,12.51
2022-12-29T15:13:58.338Z,12.69
2022-12-29T15:16:24.986Z,12.67
2022-12-29T15:18:55.089Z,12.76
2022-12-29T15:21:27.331Z,11.80
2022-12-29T15:24:06.154Z,12.30
2022-12-29T15:26:45.154Z,12.14
2022-12-29T15:29:33.486Z,12.48
2022-12-29T15:32:02.333Z,12.34
2022-12-29T15:34:35.592Z,12.48
2022-12-29T15:37:07.518Z,12.36
2022-12-29T15:39:37.993Z,12.38
2022-12-29T15:42:17.582Z,12.50
2022-12-29T15:44:45.738Z,12.45
2022-12-29T15:47:22.017Z,12.63
2022-12-29T15:49:54.956Z,13.02
2022-12-29T15:52:24.730Z,12.95
2022-12-29T15:54:56.650Z,13.01
2022-12-29T16:03:25.605Z,13.39
2022-12-29T16:05:57.969Z,13.52
2022-12-29T16:08:41.038Z,13.14
2022-12-29T16:11:27.096Z,13.07
2022-12-29T16:13:56.013Z,13.17
2022-12-29T16:16:42.398Z,13.58
2022-12-29T16:19:22.678Z,13.15
2022-12-29T16:21:49.711Z,13.15
2022-12-29T16:24:19.828Z,12.03
2022-12-29T16:26:50.309Z,12.87
2022-12-29T16:29:22.797Z,12.93
2022-12-29T16:32:06.476Z,12.99
2022-12-29T16:34:41.102Z,13.07
2022-12-29T16:37:28.832Z,13.29
2022-12-29T16:39:59.637Z,13.35
2022-12-29T16:42:40.013Z,13.16
2022-12-29T16:45:24.873Z,13.58
2022-12-29T16:48:06.795Z,13.19
2022-12-29T16:50:43.976Z,12.72
2022-12-29T16:53:41.777Z,11.70
2022-12-29T16:56:20.976Z,12.61
2022-12-29T16:59:09.179Z,13.33
2022-12-29T17:01:41.450Z,13.14
2022-12-29T17:04:13.855Z,13.04
2022-12-29T17:06:41.708Z,12.85
2022-12-29T17:09:31.639Z,12.99
2022-12-29T17:12:10.865Z,12.94
2022-12-29T17:14:45.683Z,12.78
2022-12-29T17:17:35.514Z,12.65
2022-12-29T17:20:06.439Z,12.74
2022-12-29T17:22:40.036Z,13.06
2022-12-29T17:25:08.287Z,13.00
2022-12-29T17:27:43.017Z,13.15
2022-12-29T17:30:18.873Z,12.86
2022-12-29T17:32:54.180Z,12.98
2022-12-29T17:35:24.459Z,13.31
2022-12-29T17:37:57.428Z,13.30
2022-12-29T17:40:33.616Z,13.26
2022-12-29T17:43:03.411Z,13.04
2022-12-29T17:45:34.221Z,13.28
2022-12-29T17:48:02.141Z,13.19
2022-12-29T17:50:31.552Z,13.54
2022-12-29T17:53:15.646Z,13.23
2022-12-29T17:55:43.101Z,13.14
2022-12-29T17:58:34.684Z,13.51
2022-12-29T18:01:02.730Z,12.71
2022-12-29T18:03:36.022Z,13.10
2022-12-29T18:06:06.792Z,13.25
2022-12-29T18:08:35.486Z,13.31
2022-12-29T18:11:23.360Z,12.59
2022-12-29T18:13:53.269Z,13.11
2022-12-29T18:16:21.885Z,13.09
2022-12-29T18:18:48.599Z,12.76
2022-12-29T18:21:18.971Z,13.42
2022-12-29T18:23:46.894Z,13.08
2022-12-29T18:26:27.771Z,13.18
2022-12-29T18:28:56.112Z,13.48
2022-12-29T18:31:31.825Z,13.43
2022-12-29T18:34:01.091Z,13.39
2022-12-29T18:36:28.055Z,13.56
2022-12-29T18:38:55.618Z,13.58
2022-12-29T18:41:32.261Z,13.54
2022-12-29T18:44:07.031Z,13.52
2022-12-29T18:46:34.421Z,13.42
2022-12-29T18:49:01.108Z,13.28
2022-12-29T18:51:28.043Z,13.38
2022-12-29T18:53:55.010Z,13.58
2022-12-29T18:56:27.343Z,12.56
2022-12-29T18:58:57.761Z,13.13
2022-12-29T19:01:33.065Z,13.66
2022-12-29T19:03:59.967Z,13.42
2022-12-29T19:06:29.380Z,13.07
2022-12-29T19:08:56.463Z,13.49
2022-12-29T19:11:24.558Z,13.67
2022-12-29T19:13:53.382Z,13.23
2022-12-29T19:16:27.044Z,12.87
2022-12-29T19:19:09.027Z,13.25
2022-12-29T19:21:38.926Z,12.55
2022-12-29T19:24:06.183Z,12.16
2022-12-29T19:26:37.715Z,11.73
2022-12-29T19:29:11.786Z,11.83
2022-12-29T19:31:41.365Z,11.95
2022-12-29T19:34:08.428Z,11.76
2022-12-29T19:36:35.486Z,11.82
2022-12-29T19:39:06.816Z,12.06
2022-12-29T19:41:33.558Z,11.71
2022-12-29T19:44:04.409Z,11.80
2022-12-29T19:46:35.263Z,11.39
2022-12-29T19:49:02.510Z,11.48
2022-12-29T19:51:29.259Z,10.66
2022-12-29T19:53:56.180Z,11.38
2022-12-29T19:56:23.509Z,10.18
2022-12-29T19:58:51.113Z,11.21
2022-12-29T20:01:25.766Z,10.98
2022-12-29T20:03:52.920Z,11.21
2022-12-29T20:06:20.139Z,10.91
2022-12-29T20:08:47.176Z,11.08
2022-12-29T20:11:18.384Z,11.19
2022-12-29T20:13:45.967Z,11.28
2022-12-29T20:16:19.343Z,11.39
2022-12-29T20:18:49.407Z,11.17
2022-12-29T20:21:25.665Z,11.02
2022-12-29T20:23:58.964Z,11.02
2022-12-29T20:26:28.939Z,11.07
2022-12-29T20:28:58.175Z,11.13
2022-12-29T20:31:29.631Z,11.04
2022-12-29T20:33:58.863Z,11.01
2022-12-29T20:36:31.376Z,10.70
2022-12-29T20:39:00.580Z,10.79
2022-12-29T20:41:31.344Z,11.26
2022-12-29T20:44:01.217Z,10.78
2022-12-29T20:46:35.046Z,11.74
2022-12-29T20:49:07.584Z,11.51
2022-12-29T20:52:04.338Z,11.24
2022-12-29T20:54:24.625Z,11.87
2022-12-29T20:56:52.563Z,12.16
2022-12-29T20:59:27.801Z,12.24
2022-12-29T21:01:56.569Z,12.29
2022-12-29T21:04:26.501Z,11.77
2022-12-29T21:06:53.390Z,11.79
2022-12-29T21:09:25.905Z,11.70
2022-12-29T21:11:52.964Z,11.52
2022-12-29T21:14:19.643Z,11.34
2022-12-29T21:16:50.154Z,11.20
2022-12-29T21:19:26.395Z,11.46
2022-12-29T21:21:54.036Z,11.27
2022-12-29T21:24:26.309Z,12.17
2022-12-29T21:26:53.298Z,11.96
2022-12-29T21:29:20.153Z,12.44
2022-12-29T21:31:49.856Z,12.72
2022-12-29T21:34:16.620Z,12.52
2022-12-29T21:36:43.343Z,12.31
2022-12-29T21:39:10.522Z,11.99
2022-12-29T21:41:37.261Z,11.82
2022-12-29T21:44:23.128Z,11.69
2022-12-29T21:46:52.046Z,12.79
2022-12-29T21:49:18.853Z,12.36
2022-12-29T21:51:51.774Z,12.46
2022-12-29T21:54:48.234Z,12.93
2022-12-29T21:57:40.309Z,12.97
2022-12-29T22:00:27.774Z,12.81
2022-12-29T22:03:23.012Z,12.53
2022-12-29T22:06:17.379Z,12.73
2022-12-29T22:09:03.923Z,12.93
2022-12-29T22:11:48.916Z,13.38
2022-12-29T22:14:15.623Z,13.13
2022-12-29T22:16:42.319Z,12.70
2022-12-29T22:19:15.477Z,13.00
2022-12-29T22:21:42.713Z,13.07
2022-12-29T22:24:10.045Z,13.03
2022-12-29T22:26:36.651Z,13.08
2022-12-29T22:29:14.458Z,13.32
2022-12-29T22:31:43.446Z,13.35
2022-12-29T22:34:11.565Z,12.93
2022-12-29T22:36:41.321Z,13.14
2022-12-29T22:39:08.855Z,12.77
2022-12-29T22:41:37.033Z,12.86
2022-12-29T22:44:05.184Z,12.58
2022-12-29T22:46:31.970Z,12.66
2022-12-29T22:48:59.875Z,12.38
2022-12-29T22:51:26.743Z,12.93
2022-12-29T22:53:53.939Z,12.87
2022-12-29T22:56:20.688Z,13.16
2022-12-29T22:58:48.569Z,12.83
2022-12-29T23:01:17.627Z,13.00
2022-12-29T23:03:44.972Z,12.98
2022-12-29T23:06:16.440Z,13.12
2022-12-29T23:08:44.133Z,12.90
2022-12-29T23:11:13.087Z,13.58
2022-12-29T23:13:41.193Z,13.69
2022-12-29T23:16:10.483Z,13.24
2022-12-29T23:18:40.514Z,13.23
2022-12-29T23:21:08.146Z,12.84
2022-12-29T23:23:58.346Z,12.40
2022-12-29T23:26:33.884Z,12.85
2022-12-29T23:29:03.194Z,12.36
2022-12-29T23:31:33.782Z,12.33
2022-12-29T23:34:02.881Z,12.42
2022-12-29T23:36:32.511Z,12.43
2022-12-29T23:38:59.799Z,12.58
2022-12-29T23:41:27.325Z,12.81
2022-12-29T23:44:00.251Z,12.87
2022-12-29T23:46:33.658Z,12.70
2022-12-29T23:49:00.657Z,12.33
2022-12-29T23:51:28.680Z,12.07
2022-12-29T23:53:55.537Z,12.86
2022-12-29T23:56:23.342Z,13.17
2022-12-29T23:58:51.426Z,12.92
